Airfield :
LOGIN :

Register | Disclaimer

   EN    FR    IT 

 










Legend :    VFR   Marginal VFR   IFR   Intensive IFR   Very Intensive IFR
Visi :
Ceiling :
>= 8 km
>= 3000ft
5 to 8 km
1000 to 3000 ft
1500m to 5 km
500 to 1000 ft
800 to 1500m
200 to 500 ft
< 800m
< 200 ft
Symbols :   Thunderstorms  Fog  Heavy snow  Heavy precipitations  Wind > 20 kt
SIGMETs :     Misc.  Thunderstorms  Icing  Turbulence  Mountain Waves  Volcanic Ashes






- Airport Elevation : 1521 ft
- IATA code : NCY


LFLP - Annecy

CURRENT METAR :
  • 100400Z AUTO 26005KT 9999 FEW036/// OVC090/// ///TCU 16/11 Q1008 NOSIG

EXPIRED METARs :
  • 100330Z AUTO 22006KT 9999 ///TCU 16/11 Q1007 NOSIG
  • 100300Z AUTO 23007KT 190V250 CAVOK 17/10 Q1007 TEMPO FEW050TCU
  • 100230Z AUTO 30005KT 260V330 CAVOK 16/11 Q1007
  • 100200Z AUTO 20010KT 150V250 9999 -RA FEW018/// SCT084/// BKN100/// ///TCU 19/09 Q1007
  • 100130Z AUTO 19017KT CAVOK 21/07 Q1007

TAF TAF LFLP
Valid from the 10 at 03:00 until the 11 at 03:00 UTC


100200Z 1003/1103 16006KT 9999 BKN065
TEMPO 1003/1006 -SHRA FEW050TCU
TEMPO 1006/1024 4500 RA SCT050TCU
PROB30
TEMPO 1006/1018 VRB10KT 2500 TSRA BKN012 SCT040CB



MET'MAP, your aeronautical weather chart ! - Copyright ORBIFLY December 2007 - Disclaimer

ORBIFLY MET'MAP TEAM :

Programming & Development : Alexandra Zaïnal
Concept & original design : Baudouin d'Aumeries
Assistance for programming : Marc-Olivier Méhu
Technical & hardware support : Manuel Goepfert

Contact : metmap@orbifly.com




SOURCES & CREDITS :

   NOAA